createdAt,value
2022-12-25T00:00:22.382Z,7.73
2022-12-25T00:01:22.344Z,7.7
2022-12-25T00:02:22.387Z,7.66
2022-12-25T00:03:22.462Z,7.63
2022-12-25T00:04:22.341Z,7.59
2022-12-25T00:05:22.437Z,7.55
2022-12-25T00:06:22.329Z,7.55
2022-12-25T00:07:22.496Z,7.54
2022-12-25T00:08:22.372Z,7.55
2022-12-25T00:09:22.355Z,7.55
2022-12-25T00:10:22.574Z,7.54
2022-12-25T00:11:22.577Z,7.51
2022-12-25T00:12:22.502Z,7.51
2022-12-25T00:13:22.751Z,7.5
2022-12-25T00:14:22.943Z,7.51
2022-12-25T00:15:22.542Z,7.53
2022-12-25T00:16:22.598Z,7.55
2022-12-25T00:17:22.713Z,7.57
2022-12-25T00:18:22.932Z,7.58
2022-12-25T00:19:22.361Z,7.57
2022-12-25T00:20:22.614Z,7.55
2022-12-25T00:21:22.615Z,7.53
2022-12-25T00:22:22.470Z,7.53
2022-12-25T00:23:22.687Z,7.51
2022-12-25T00:24:22.635Z,7.48
2022-12-25T00:25:22.328Z,7.46
2022-12-25T00:26:22.329Z,7.43
2022-12-25T00:27:22.341Z,7.4
2022-12-25T00:28:22.330Z,7.39
2022-12-25T00:29:22.347Z,7.36
2022-12-25T00:30:22.337Z,7.31
2022-12-25T00:31:22.414Z,7.27
2022-12-25T00:32:22.339Z,7.23
2022-12-25T00:33:22.365Z,7.19
2022-12-25T00:34:22.499Z,7.16
2022-12-25T00:35:22.339Z,7.15
2022-12-25T00:36:22.345Z,7.13
2022-12-25T00:37:22.344Z,7.12
2022-12-25T00:38:22.348Z,7.11
2022-12-25T00:39:22.332Z,7.09
2022-12-25T00:40:22.329Z,7.06
2022-12-25T00:41:22.328Z,7.05
2022-12-25T00:42:22.333Z,7.02
2022-12-25T00:43:22.334Z,7.02
2022-12-25T00:44:22.334Z,7.02
2022-12-25T00:45:22.395Z,7.02
2022-12-25T00:46:22.613Z,7.03
2022-12-25T00:47:22.658Z,7.02
2022-12-25T00:48:22.339Z,7.03
2022-12-25T00:49:22.598Z,7.03
2022-12-25T00:50:22.425Z,7.03
2022-12-25T00:51:22.659Z,7.03
2022-12-25T00:52:22.915Z,7.03
2022-12-25T00:53:22.619Z,7.03
2022-12-25T00:54:22.329Z,7.02
2022-12-25T00:55:22.329Z,7.05
2022-12-25T00:56:22.329Z,7.06
2022-12-25T00:57:22.335Z,7.07
2022-12-25T00:58:22.330Z,7.07
2022-12-25T00:59:22.334Z,7.09
2022-12-25T01:00:22.335Z,7.12
2022-12-25T01:01:22.443Z,7.16
2022-12-25T01:02:22.532Z,7.19
2022-12-25T01:03:22.656Z,7.22
2022-12-25T01:04:22.343Z,7.25
2022-12-25T01:05:22.345Z,7.26
2022-12-25T01:06:22.346Z,7.29
2022-12-25T01:07:22.328Z,7.33
2022-12-25T01:08:22.355Z,7.36
2022-12-25T01:09:22.334Z,7.38
2022-12-25T01:10:22.330Z,7.39
2022-12-25T01:11:22.326Z,7.39
2022-12-25T01:12:22.329Z,7.39
2022-12-25T01:13:22.365Z,7.41
2022-12-25T01:14:22.375Z,7.45
2022-12-25T01:15:22.336Z,7.48
2022-12-25T01:16:22.357Z,7.5
2022-12-25T01:17:22.446Z,7.52
2022-12-25T01:18:22.362Z,7.49
2022-12-25T01:19:22.337Z,7.49
2022-12-25T01:20:22.337Z,7.48
2022-12-25T01:21:22.347Z,7.49
2022-12-25T01:22:22.337Z,7.49
2022-12-25T01:23:22.370Z,7.48
2022-12-25T01:24:22.334Z,7.47
2022-12-25T01:25:22.358Z,7.46
2022-12-25T01:26:22.329Z,7.45
2022-12-25T01:27:22.345Z,7.44
2022-12-25T01:28:22.353Z,7.44
2022-12-25T01:29:22.338Z,7.44
2022-12-25T01:30:22.340Z,7.43
2022-12-25T01:31:22.528Z,7.45
2022-12-25T01:32:22.351Z,7.45
2022-12-25T01:33:22.355Z,7.47
2022-12-25T01:34:22.346Z,7.47
2022-12-25T01:35:22.334Z,7.48
2022-12-25T01:36:22.325Z,7.49
2022-12-25T01:37:22.333Z,7.52
2022-12-25T01:38:22.348Z,7.55
2022-12-25T01:39:22.324Z,7.58
2022-12-25T01:40:22.340Z,7.6
2022-12-25T01:41:22.329Z,7.61
2022-12-25T01:42:22.333Z,7.62
2022-12-25T01:43:22.344Z,7.63
2022-12-25T01:44:22.345Z,7.63
2022-12-25T01:45:22.355Z,7.63
2022-12-25T01:46:22.405Z,7.66
2022-12-25T01:47:22.354Z,7.7
2022-12-25T01:48:22.339Z,7.71
2022-12-25T01:49:22.331Z,7.72
2022-12-25T01:50:22.334Z,7.76
2022-12-25T01:51:22.334Z,7.79
2022-12-25T01:52:25.340Z,7.84
2022-12-25T01:53:22.336Z,7.88
2022-12-25T01:54:22.330Z,7.91
2022-12-25T01:55:22.353Z,7.94
2022-12-25T01:56:22.331Z,7.98
2022-12-25T01:57:22.338Z,8.02
2022-12-25T01:58:22.333Z,8.06
2022-12-25T01:59:22.331Z,8.11
2022-12-25T02:00:22.333Z,8.18
2022-12-25T02:01:22.505Z,8.24
2022-12-25T02:02:22.506Z,8.27
2022-12-25T02:03:22.411Z,8.31
2022-12-25T02:04:22.342Z,8.34
2022-12-25T02:05:22.335Z,8.37
2022-12-25T02:06:23.522Z,8.39
2022-12-25T02:07:22.407Z,8.41
2022-12-25T02:08:22.708Z,8.41
2022-12-25T02:09:22.247Z,8.44
2022-12-25T02:10:22.359Z,8.49
2022-12-25T02:11:22.603Z,8.51
2022-12-25T02:12:22.800Z,8.53
2022-12-25T02:13:22.578Z,8.54
2022-12-25T02:14:22.483Z,8.55
2022-12-25T02:15:22.385Z,8.56
2022-12-25T02:16:22.402Z,8.57
2022-12-25T02:17:22.374Z,8.61
2022-12-25T02:18:22.337Z,8.64
2022-12-25T02:19:22.365Z,8.68
2022-12-25T02:20:22.332Z,8.7
2022-12-25T02:21:22.583Z,8.72
2022-12-25T02:22:22.329Z,8.73
2022-12-25T02:23:22.337Z,8.74
2022-12-25T02:24:22.406Z,8.76
2022-12-25T02:25:22.346Z,8.77
2022-12-25T02:26:22.438Z,8.79
2022-12-25T02:27:22.341Z,8.81
2022-12-25T02:28:22.327Z,8.84
2022-12-25T02:29:22.348Z,8.87
2022-12-25T02:30:22.343Z,8.89
2022-12-25T02:31:22.591Z,8.91
2022-12-25T02:32:22.330Z,8.91
2022-12-25T02:33:22.342Z,8.92
2022-12-25T02:34:22.347Z,8.94
2022-12-25T02:35:22.387Z,8.97
2022-12-25T02:36:22.565Z,8.99
2022-12-25T02:37:22.373Z,9.02
2022-12-25T02:38:22.360Z,9.03
2022-12-25T02:39:22.413Z,9.03
2022-12-25T02:40:22.346Z,9.02
2022-12-25T02:41:22.363Z,9.04
2022-12-25T02:42:22.383Z,9.04
2022-12-25T02:43:22.351Z,9.05
2022-12-25T02:44:22.347Z,9.08
2022-12-25T02:45:22.340Z,9.08
2022-12-25T02:46:22.380Z,9.1
2022-12-25T02:47:22.360Z,9.13
2022-12-25T02:48:22.369Z,9.16
2022-12-25T02:49:22.363Z,9.19
2022-12-25T02:50:22.331Z,9.22
2022-12-25T02:51:22.332Z,9.22
2022-12-25T02:52:22.334Z,9.24
2022-12-25T02:53:22.377Z,9.26
2022-12-25T02:54:22.369Z,9.26
2022-12-25T02:55:22.377Z,9.28
2022-12-25T02:56:22.343Z,9.29
2022-12-25T02:57:22.404Z,9.31
2022-12-25T02:58:22.368Z,9.32
2022-12-25T02:59:22.329Z,9.32
2022-12-25T03:00:22.338Z,9.32
2022-12-25T03:01:22.439Z,9.31
2022-12-25T03:02:22.435Z,9.31
2022-12-25T03:03:22.408Z,9.32
2022-12-25T03:04:22.374Z,9.33
2022-12-25T03:05:22.337Z,9.33
2022-12-25T03:06:22.371Z,9.33
2022-12-25T03:07:22.339Z,9.32
2022-12-25T03:08:22.335Z,9.31
2022-12-25T03:09:22.383Z,9.3
2022-12-25T03:10:22.335Z,9.29
2022-12-25T03:11:22.333Z,9.29
2022-12-25T03:12:22.335Z,9.28
2022-12-25T03:13:22.339Z,9.29
2022-12-25T03:14:22.350Z,9.27
2022-12-25T03:15:22.332Z,9.27
2022-12-25T03:16:22.393Z,9.26
2022-12-25T03:17:22.344Z,9.27
2022-12-25T03:18:22.345Z,9.27
2022-12-25T03:19:22.357Z,9.26
2022-12-25T03:20:22.362Z,9.27
2022-12-25T03:21:22.347Z,9.25
2022-12-25T03:22:22.336Z,9.24
2022-12-25T03:23:22.401Z,9.24
2022-12-25T03:24:22.483Z,9.23
2022-12-25T03:25:22.327Z,9.23
2022-12-25T03:26:22.345Z,9.22
2022-12-25T03:27:22.344Z,9.22
2022-12-25T03:28:22.496Z,9.22
2022-12-25T03:29:27.152Z,9.21
2022-12-25T03:30:22.340Z,9.2
2022-12-25T03:31:22.393Z,9.18
2022-12-25T03:32:22.337Z,9.19
2022-12-25T03:33:44.278Z,9.18
2022-12-25T03:34:22.336Z,9.18
2022-12-25T03:35:22.343Z,9.17
2022-12-25T03:36:22.337Z,9.16
2022-12-25T03:37:22.367Z,9.13
2022-12-25T03:38:22.339Z,9.13
2022-12-25T03:39:22.564Z,9.13
2022-12-25T03:40:22.523Z,9.13
2022-12-25T03:41:22.343Z,9.12
2022-12-25T03:42:22.602Z,9.14
2022-12-25T03:43:22.604Z,9.14
2022-12-25T03:44:22.883Z,9.15
2022-12-25T03:45:22.407Z,9.18
2022-12-25T03:46:22.620Z,9.18
2022-12-25T03:47:22.456Z,9.2
2022-12-25T03:48:22.331Z,9.22
2022-12-25T03:49:22.547Z,9.23
2022-12-25T03:50:22.686Z,9.23
2022-12-25T03:51:22.588Z,9.23
2022-12-25T03:52:22.354Z,9.23
2022-12-25T03:53:22.636Z,9.24
2022-12-25T03:54:22.338Z,9.23
2022-12-25T03:55:22.372Z,9.24
2022-12-25T03:56:22.338Z,9.26
2022-12-25T03:57:22.476Z,9.27
2022-12-25T03:58:22.365Z,9.29
2022-12-25T03:59:24.207Z,9.3
2022-12-25T04:00:22.336Z,9.33
2022-12-25T04:01:22.482Z,9.33
2022-12-25T04:02:22.476Z,9.35
2022-12-25T04:03:22.379Z,9.39
2022-12-25T04:04:22.388Z,9.42
2022-12-25T04:05:22.346Z,9.44
2022-12-25T04:06:22.343Z,9.44
2022-12-25T04:07:22.349Z,9.46
2022-12-25T04:08:22.339Z,9.47
2022-12-25T04:09:22.350Z,9.51
2022-12-25T04:10:22.335Z,9.5
2022-12-25T04:11:22.414Z,9.51
2022-12-25T04:12:22.345Z,9.51
2022-12-25T04:13:22.332Z,9.53
2022-12-25T04:14:22.349Z,9.52
2022-12-25T04:15:22.332Z,9.52
2022-12-25T04:16:22.399Z,9.54
2022-12-25T04:17:22.336Z,9.54
2022-12-25T04:18:22.340Z,9.55
2022-12-25T04:19:22.472Z,9.54
2022-12-25T04:20:22.344Z,9.54
2022-12-25T04:21:22.498Z,9.54
2022-12-25T04:22:22.599Z,9.54
2022-12-25T04:23:22.828Z,9.56
2022-12-25T04:24:22.636Z,9.57
2022-12-25T04:25:22.403Z,9.59
2022-12-25T04:26:22.650Z,9.6
2022-12-25T04:27:22.907Z,9.6
2022-12-25T04:28:22.641Z,9.62
2022-12-25T04:29:22.350Z,9.62
2022-12-25T04:30:22.357Z,9.61
2022-12-25T04:31:22.719Z,9.61
2022-12-25T04:32:22.346Z,9.62
2022-12-25T04:33:22.336Z,9.65
2022-12-25T04:34:22.408Z,9.66
2022-12-25T04:35:22.347Z,9.66
2022-12-25T04:36:22.538Z,9.66
2022-12-25T04:37:22.335Z,9.66
2022-12-25T04:38:22.344Z,9.67
2022-12-25T04:39:22.346Z,9.67
2022-12-25T04:40:22.325Z,9.64
2022-12-25T04:41:22.662Z,9.65
2022-12-25T04:42:22.454Z,9.66
2022-12-25T04:43:22.333Z,9.66
2022-12-25T04:44:22.352Z,9.66
2022-12-25T04:45:22.341Z,9.65
2022-12-25T04:46:22.587Z,9.63
2022-12-25T04:47:22.388Z,9.62
2022-12-25T04:48:22.345Z,9.6
2022-12-25T04:49:22.334Z,9.62
2022-12-25T04:50:22.347Z,9.61
2022-12-25T04:51:22.338Z,9.63
2022-12-25T04:52:22.340Z,9.62
2022-12-25T04:53:22.352Z,9.61
2022-12-25T04:54:22.337Z,9.59
2022-12-25T04:55:22.340Z,9.59
2022-12-25T04:56:22.349Z,9.59
2022-12-25T04:57:22.343Z,9.57
2022-12-25T04:58:22.338Z,9.58
2022-12-25T04:59:22.339Z,9.59
2022-12-25T05:00:22.334Z,9.59
2022-12-25T05:01:22.424Z,9.59
2022-12-25T05:02:22.451Z,9.58
2022-12-25T05:03:22.373Z,9.59
2022-12-25T05:04:22.383Z,9.59
2022-12-25T05:05:22.348Z,9.6
2022-12-25T05:06:22.337Z,9.61
2022-12-25T05:07:22.337Z,9.6
2022-12-25T05:08:22.333Z,9.6
2022-12-25T05:09:22.342Z,9.59
2022-12-25T05:10:22.338Z,9.59
2022-12-25T05:11:22.335Z,9.57
2022-12-25T05:12:22.338Z,9.57
2022-12-25T05:13:22.343Z,9.57
2022-12-25T05:14:22.339Z,9.58
2022-12-25T05:15:22.337Z,9.58
2022-12-25T05:16:22.436Z,9.58
2022-12-25T05:17:22.340Z,9.57
2022-12-25T05:18:22.349Z,9.56
2022-12-25T05:19:22.345Z,9.54
2022-12-25T05:20:22.359Z,9.53
2022-12-25T05:21:22.363Z,9.53
2022-12-25T05:22:22.335Z,9.52
2022-12-25T05:23:22.339Z,9.51
2022-12-25T05:24:22.344Z,9.49
2022-12-25T05:25:22.340Z,9.47
2022-12-25T05:26:22.333Z,9.45
2022-12-25T05:27:22.350Z,9.43
2022-12-25T05:28:22.339Z,9.44
2022-12-25T05:29:22.375Z,9.44
2022-12-25T05:30:22.353Z,9.43
2022-12-25T05:31:22.419Z,9.42
2022-12-25T05:32:22.338Z,9.4
2022-12-25T05:33:22.346Z,9.39
2022-12-25T05:34:22.422Z,9.38
2022-12-25T05:35:22.332Z,9.37
2022-12-25T05:36:22.352Z,9.36
2022-12-25T05:37:22.345Z,9.35
2022-12-25T05:38:22.338Z,9.34
2022-12-25T05:39:22.372Z,9.3
2022-12-25T05:40:22.404Z,9.27
2022-12-25T05:41:22.628Z,9.23
2022-12-25T05:42:22.709Z,9.2
2022-12-25T05:43:22.101Z,9.18
2022-12-25T05:44:22.336Z,9.15
2022-12-25T05:45:22.808Z,9.12
2022-12-25T05:46:22.374Z,9.11
2022-12-25T05:47:22.455Z,9.1
2022-12-25T05:48:22.348Z,9.1
2022-12-25T05:49:22.387Z,9.09
2022-12-25T05:50:22.339Z,9.09
2022-12-25T05:51:22.339Z,9.1
2022-12-25T05:52:22.334Z,9.11
2022-12-25T05:53:22.346Z,9.11
2022-12-25T05:54:22.381Z,9.12
2022-12-25T05:55:22.336Z,9.14
2022-12-25T05:56:22.343Z,9.17
2022-12-25T05:57:22.343Z,9.18
2022-12-25T05:58:22.347Z,9.2
2022-12-25T05:59:22.387Z,9.21
2022-12-25T06:00:22.334Z,9.22
2022-12-25T06:01:22.383Z,9.21
2022-12-25T06:02:22.512Z,9.2
2022-12-25T06:03:22.385Z,9.2
2022-12-25T06:04:22.379Z,9.19
2022-12-25T06:05:22.332Z,9.18
2022-12-25T06:06:22.336Z,9.16
2022-12-25T06:07:22.341Z,9.15
2022-12-25T06:08:22.339Z,9.14
2022-12-25T06:09:22.385Z,9.12
2022-12-25T06:10:22.333Z,9.12
2022-12-25T06:11:22.342Z,9.11
2022-12-25T06:12:22.405Z,9.13
2022-12-25T06:13:22.432Z,9.13
2022-12-25T06:14:22.391Z,9.14
2022-12-25T06:15:22.363Z,9.15
2022-12-25T06:16:22.420Z,9.15
2022-12-25T06:17:22.332Z,9.16
2022-12-25T06:18:22.340Z,9.17
2022-12-25T06:19:22.404Z,9.17
2022-12-25T06:20:22.359Z,9.2
2022-12-25T06:21:22.340Z,9.22
2022-12-25T06:22:22.350Z,9.24
2022-12-25T06:23:22.414Z,9.25
2022-12-25T06:24:22.336Z,9.26
2022-12-25T06:25:22.385Z,9.27
2022-12-25T06:26:22.344Z,9.29
2022-12-25T06:27:22.341Z,9.32
2022-12-25T06:28:22.438Z,9.31
2022-12-25T06:29:22.385Z,9.34
2022-12-25T06:30:22.356Z,9.37
2022-12-25T06:31:22.391Z,9.37
2022-12-25T06:32:22.368Z,9.36
2022-12-25T06:33:22.351Z,9.37
2022-12-25T06:34:22.400Z,9.35
2022-12-25T06:35:22.340Z,9.34
2022-12-25T06:36:22.343Z,9.32
2022-12-25T06:37:22.346Z,9.3
2022-12-25T06:38:22.365Z,9.3
2022-12-25T06:39:22.348Z,9.29
2022-12-25T06:40:22.337Z,9.28
2022-12-25T06:41:22.444Z,9.27
2022-12-25T06:42:22.348Z,9.26
2022-12-25T06:43:22.363Z,9.26
2022-12-25T06:44:22.397Z,9.28
2022-12-25T06:45:22.334Z,9.28
2022-12-25T06:46:22.457Z,9.28
2022-12-25T06:47:22.330Z,9.3
2022-12-25T06:48:22.348Z,9.29
2022-12-25T06:49:22.378Z,9.3
2022-12-25T06:50:22.336Z,9.33
2022-12-25T06:51:22.348Z,9.34
2022-12-25T06:52:22.345Z,9.33
2022-12-25T06:53:22.378Z,9.33
2022-12-25T06:54:22.368Z,9.34
2022-12-25T06:55:22.579Z,9.37
2022-12-25T06:56:22.334Z,9.39
2022-12-25T06:57:22.356Z,9.41
2022-12-25T06:58:22.937Z,9.45
2022-12-25T06:59:22.615Z,9.45
2022-12-25T07:00:22.353Z,9.46
2022-12-25T07:01:22.506Z,9.45
2022-12-25T07:02:22.403Z,9.45
2022-12-25T07:03:22.440Z,9.46
2022-12-25T07:04:22.342Z,9.45
2022-12-25T07:05:22.336Z,9.45
2022-12-25T07:06:22.337Z,9.46
2022-12-25T07:07:22.340Z,9.46
2022-12-25T07:08:22.572Z,9.46
2022-12-25T07:09:22.333Z,9.45
2022-12-25T07:10:22.362Z,9.44
2022-12-25T07:11:22.454Z,9.41
2022-12-25T07:12:22.331Z,9.36
2022-12-25T07:13:22.595Z,9.32
2022-12-25T07:14:25.496Z,9.3
2022-12-25T07:15:22.356Z,9.31
2022-12-25T07:16:22.644Z,9.28
2022-12-25T07:17:22.629Z,9.27
2022-12-25T07:18:22.546Z,9.25
2022-12-25T07:19:22.446Z,9.23
2022-12-25T07:20:22.340Z,9.2
2022-12-25T07:21:22.558Z,9.18
2022-12-25T07:22:22.478Z,9.18
2022-12-25T07:23:22.538Z,9.16
2022-12-25T07:24:22.811Z,9.12
2022-12-25T07:25:22.658Z,9.11
2022-12-25T07:26:23.080Z,9.09
2022-12-25T07:27:22.459Z,9.07
2022-12-25T07:28:22.749Z,9.07
2022-12-25T07:29:22.345Z,9.06
2022-12-25T07:30:22.447Z,9.04
2022-12-25T07:31:22.385Z,9.03
2022-12-25T07:32:22.619Z,9.02
2022-12-25T07:33:22.366Z,9.03
2022-12-25T07:34:22.540Z,9.03
2022-12-25T07:35:22.339Z,9.04
2022-12-25T07:36:22.338Z,9.04
2022-12-25T07:37:22.344Z,9.04
2022-12-25T07:38:22.355Z,9.02
2022-12-25T07:39:22.358Z,9.01
2022-12-25T07:40:22.353Z,8.99
2022-12-25T07:41:22.342Z,8.97
2022-12-25T07:42:25.714Z,8.95
2022-12-25T07:43:22.344Z,8.95
2022-12-25T07:44:22.388Z,8.93
2022-12-25T07:45:22.355Z,8.92
2022-12-25T07:46:22.386Z,8.9
2022-12-25T07:47:22.337Z,8.91
2022-12-25T07:48:22.331Z,8.89
2022-12-25T07:49:22.340Z,8.88
2022-12-25T07:50:22.374Z,8.87
2022-12-25T07:51:22.342Z,8.86
2022-12-25T07:52:22.331Z,8.85
2022-12-25T07:53:22.369Z,8.85
2022-12-25T07:54:22.340Z,8.89
2022-12-25T07:55:22.372Z,8.92
2022-12-25T07:56:22.348Z,8.95
2022-12-25T07:57:22.336Z,8.99
2022-12-25T07:58:25.414Z,9.03
2022-12-25T07:59:22.364Z,9.05
2022-12-25T08:00:22.435Z,9.07
2022-12-25T08:01:22.512Z,9.11
2022-12-25T08:02:22.584Z,9.12
2022-12-25T08:03:22.536Z,9.13
2022-12-25T08:04:22.371Z,9.17
2022-12-25T08:05:22.339Z,9.18
2022-12-25T08:06:22.343Z,9.21
2022-12-25T08:07:22.362Z,9.23
2022-12-25T08:08:22.341Z,9.23
2022-12-25T08:09:22.515Z,9.22
2022-12-25T08:10:22.336Z,9.23
2022-12-25T08:11:22.348Z,9.24
2022-12-25T08:12:22.345Z,9.25
2022-12-25T08:13:22.339Z,9.23
2022-12-25T08:14:22.333Z,9.23
2022-12-25T08:15:22.337Z,9.23
2022-12-25T08:16:22.374Z,9.23
2022-12-25T08:17:22.350Z,9.23
2022-12-25T08:18:29.778Z,9.24
2022-12-25T08:19:22.341Z,9.24
2022-12-25T08:20:22.348Z,9.27
2022-12-25T08:21:22.347Z,9.28
2022-12-25T08:22:22.337Z,9.33
2022-12-25T08:23:22.330Z,9.35
2022-12-25T08:24:22.335Z,9.37
2022-12-25T08:25:22.334Z,9.37
2022-12-25T08:26:22.340Z,9.4
2022-12-25T08:27:22.343Z,9.42
2022-12-25T08:28:22.342Z,9.46
2022-12-25T08:29:22.332Z,9.49
2022-12-25T08:30:22.356Z,9.52
2022-12-25T08:31:22.379Z,9.56
2022-12-25T08:32:22.334Z,9.56
2022-12-25T08:33:22.351Z,9.57
2022-12-25T08:34:22.336Z,9.56
2022-12-25T08:35:22.399Z,9.56
2022-12-25T08:36:22.353Z,9.55
2022-12-25T08:37:22.335Z,9.54
2022-12-25T08:38:22.335Z,9.53
2022-12-25T08:39:22.339Z,9.51
2022-12-25T08:40:22.420Z,9.51
2022-12-25T08:41:22.352Z,9.51
2022-12-25T08:42:22.402Z,9.51
2022-12-25T08:43:22.338Z,9.51
2022-12-25T08:44:22.361Z,9.51
2022-12-25T08:45:22.346Z,9.52
2022-12-25T08:46:22.365Z,9.52
2022-12-25T08:47:22.334Z,9.53
2022-12-25T08:48:22.335Z,9.54
2022-12-25T08:49:22.332Z,9.54
2022-12-25T08:50:22.335Z,9.56
2022-12-25T08:51:22.457Z,9.56
2022-12-25T08:52:22.351Z,9.57
2022-12-25T08:53:22.339Z,9.6
2022-12-25T08:54:22.331Z,9.62
2022-12-25T08:55:22.358Z,9.67
2022-12-25T08:56:22.325Z,9.71
2022-12-25T08:57:22.406Z,9.74
2022-12-25T08:58:22.341Z,9.75
2022-12-25T08:59:22.328Z,9.78
2022-12-25T09:00:22.334Z,9.8
2022-12-25T09:01:22.405Z,9.81
2022-12-25T09:02:22.415Z,9.83
2022-12-25T09:03:22.427Z,9.83
2022-12-25T09:04:22.339Z,9.84
2022-12-25T09:05:22.337Z,9.84
2022-12-25T09:06:22.338Z,9.86
2022-12-25T09:07:22.345Z,9.91
2022-12-25T09:08:22.346Z,9.95
2022-12-25T09:09:22.341Z,9.97
2022-12-25T09:10:22.357Z,10
2022-12-25T09:11:22.393Z,10.02
2022-12-25T09:12:22.333Z,10.04
2022-12-25T09:13:22.339Z,10.06
2022-12-25T09:14:22.423Z,10.08
2022-12-25T09:15:23.582Z,10.08
2022-12-25T09:16:22.781Z,10.11
2022-12-25T09:17:22.033Z,10.13
2022-12-25T09:18:22.562Z,10.17
2022-12-25T09:19:22.949Z,10.19
2022-12-25T09:20:22.401Z,10.18
2022-12-25T09:21:22.346Z,10.17
2022-12-25T09:22:22.511Z,10.18
2022-12-25T09:23:22.335Z,10.17
2022-12-25T09:24:22.384Z,10.17
2022-12-25T09:25:22.371Z,10.16
2022-12-25T09:26:22.332Z,10.15
2022-12-25T09:27:22.345Z,10.13
2022-12-25T09:28:22.352Z,10.11
2022-12-25T09:29:22.357Z,10.1
2022-12-25T09:30:22.353Z,10.09
2022-12-25T09:31:22.661Z,10.07
2022-12-25T09:32:22.370Z,10.06
2022-12-25T09:33:22.332Z,10.07
2022-12-25T09:34:22.367Z,10.08
2022-12-25T09:35:22.343Z,10.09
2022-12-25T09:36:22.334Z,10.09
2022-12-25T09:37:22.427Z,10.09
2022-12-25T09:38:22.338Z,10.07
2022-12-25T09:39:22.364Z,10.04
2022-12-25T09:40:22.343Z,10.02
2022-12-25T09:41:22.338Z,9.99
2022-12-25T09:42:22.347Z,9.95
2022-12-25T09:43:22.338Z,9.91
2022-12-25T09:44:22.363Z,9.87
2022-12-25T09:45:22.356Z,9.84
2022-12-25T09:46:22.373Z,9.81
2022-12-25T09:47:22.342Z,9.77
2022-12-25T09:48:22.355Z,9.74
2022-12-25T09:49:22.383Z,9.7
2022-12-25T09:50:22.360Z,9.68
2022-12-25T09:51:22.339Z,9.67
2022-12-25T09:52:22.336Z,9.64
2022-12-25T09:53:22.331Z,9.63
2022-12-25T09:54:22.363Z,9.63
2022-12-25T09:55:22.359Z,9.61
2022-12-25T09:56:22.342Z,9.6
2022-12-25T09:57:22.336Z,9.6
2022-12-25T09:58:22.345Z,9.59
2022-12-25T09:59:22.352Z,9.58
2022-12-25T10:00:22.357Z,9.57
2022-12-25T10:01:22.453Z,9.57
2022-12-25T10:02:22.585Z,9.56
2022-12-25T10:03:22.370Z,9.54
2022-12-25T10:04:22.328Z,9.53
2022-12-25T10:05:22.342Z,9.52
2022-12-25T10:06:22.352Z,9.5
2022-12-25T10:07:22.342Z,9.48
2022-12-25T10:08:22.341Z,9.47
2022-12-25T10:09:22.331Z,9.45
2022-12-25T10:10:22.333Z,9.41
2022-12-25T10:11:22.346Z,9.38
2022-12-25T10:12:22.373Z,9.39
2022-12-25T10:13:22.344Z,9.36
2022-12-25T10:14:22.344Z,9.35
2022-12-25T10:15:22.339Z,9.35
2022-12-25T10:16:22.426Z,9.35
2022-12-25T10:17:22.347Z,9.35
2022-12-25T10:18:22.346Z,9.34
2022-12-25T10:19:22.342Z,9.31
2022-12-25T10:20:22.341Z,9.29
2022-12-25T10:21:22.339Z,9.28
2022-12-25T10:22:22.338Z,9.28
2022-12-25T10:23:22.333Z,9.27
2022-12-25T10:24:22.331Z,9.25
2022-12-25T10:25:22.350Z,9.23
2022-12-25T10:26:22.335Z,9.22
2022-12-25T10:27:22.575Z,9.22
2022-12-25T10:28:22.833Z,9.2
2022-12-25T10:29:22.602Z,9.19
2022-12-25T10:30:22.409Z,9.18
2022-12-25T10:31:22.818Z,9.17
2022-12-25T10:32:23.085Z,9.17
2022-12-25T10:33:23.285Z,9.17
2022-12-25T10:34:22.342Z,9.17
2022-12-25T10:35:22.344Z,9.19
2022-12-25T10:36:22.337Z,9.19
2022-12-25T10:37:22.336Z,9.19
2022-12-25T10:38:22.346Z,9.19
2022-12-25T10:39:22.437Z,9.18
2022-12-25T10:40:22.341Z,9.17
2022-12-25T10:41:22.340Z,9.17
2022-12-25T10:42:22.341Z,9.17
2022-12-25T10:43:22.359Z,9.17
2022-12-25T10:44:22.356Z,9.17
2022-12-25T10:45:22.508Z,9.17
2022-12-25T10:46:22.389Z,9.17
2022-12-25T10:47:22.353Z,9.18
2022-12-25T10:48:22.599Z,9.18
2022-12-25T10:49:22.596Z,9.2
2022-12-25T10:50:22.334Z,9.22
2022-12-25T10:51:22.389Z,9.24
2022-12-25T10:52:22.642Z,9.23
2022-12-25T10:53:22.581Z,9.24
2022-12-25T10:54:22.846Z,9.26
2022-12-25T10:55:28.989Z,9.28
2022-12-25T10:56:22.475Z,9.29
2022-12-25T10:57:22.379Z,9.29
2022-12-25T10:58:22.646Z,9.32
2022-12-25T10:59:22.524Z,9.33
2022-12-25T11:00:22.376Z,9.35
2022-12-25T11:01:22.473Z,9.38
2022-12-25T11:02:22.675Z,9.4
2022-12-25T11:03:22.486Z,9.42
2022-12-25T11:04:22.339Z,9.43
2022-12-25T11:05:22.583Z,9.44
2022-12-25T11:06:22.344Z,9.45
2022-12-25T11:07:22.500Z,9.46
2022-12-25T11:08:22.384Z,9.46
2022-12-25T11:09:22.598Z,9.46
2022-12-25T11:10:23.268Z,9.46
2022-12-25T11:11:22.330Z,9.46
2022-12-25T11:12:22.342Z,9.45
2022-12-25T11:13:22.349Z,9.44
2022-12-25T11:14:22.337Z,9.45
2022-12-25T11:15:22.337Z,9.48
2022-12-25T11:16:22.482Z,9.49
2022-12-25T11:17:22.333Z,9.48
2022-12-25T11:18:22.376Z,9.48
2022-12-25T11:19:22.339Z,9.49
2022-12-25T11:20:22.329Z,9.49
2022-12-25T11:21:22.331Z,9.5
2022-12-25T11:22:22.338Z,9.5
2022-12-25T11:23:22.379Z,9.49
2022-12-25T11:24:22.339Z,9.51
2022-12-25T11:25:22.330Z,9.51
2022-12-25T11:26:22.339Z,9.47
2022-12-25T11:27:22.344Z,9.5
2022-12-25T11:28:22.338Z,9.51
2022-12-25T11:29:22.429Z,9.52
2022-12-25T11:30:22.349Z,9.52
2022-12-25T11:31:22.468Z,9.52
2022-12-25T11:32:22.349Z,9.53
2022-12-25T11:33:22.506Z,9.54
2022-12-25T11:34:22.337Z,9.54
2022-12-25T11:35:22.346Z,9.54
2022-12-25T11:36:22.329Z,9.53
2022-12-25T11:37:22.601Z,9.54
2022-12-25T11:38:22.344Z,9.56
2022-12-25T11:39:22.333Z,9.57
2022-12-25T11:40:22.355Z,9.57
2022-12-25T11:41:22.570Z,9.58
2022-12-25T11:42:22.330Z,9.59
2022-12-25T11:43:22.403Z,9.59
2022-12-25T11:44:22.334Z,9.59
2022-12-25T11:45:22.353Z,9.59
2022-12-25T11:46:22.348Z,9.58
2022-12-25T11:47:22.328Z,9.56
2022-12-25T11:48:22.329Z,9.56
2022-12-25T11:49:22.361Z,9.55
2022-12-25T11:50:22.349Z,9.54
2022-12-25T11:51:22.330Z,9.53
2022-12-25T11:52:22.331Z,9.53
2022-12-25T11:53:22.355Z,9.48
2022-12-25T11:54:22.337Z,9.44
2022-12-25T11:55:22.372Z,9.4
2022-12-25T11:56:22.332Z,9.38
2022-12-25T11:57:22.358Z,9.38
2022-12-25T11:58:22.360Z,9.37
2022-12-25T11:59:22.341Z,9.35
2022-12-25T12:00:22.353Z,9.3
2022-12-25T12:01:22.378Z,9.28
2022-12-25T12:02:22.442Z,9.26
2022-12-25T12:03:22.483Z,9.24
2022-12-25T12:04:29.581Z,9.22
2022-12-25T12:05:22.337Z,9.21
2022-12-25T12:06:22.326Z,9.2
2022-12-25T12:07:22.337Z,9.19
2022-12-25T12:08:22.340Z,9.2
2022-12-25T12:09:22.340Z,9.2
2022-12-25T12:10:22.334Z,9.2
2022-12-25T12:11:22.388Z,9.18
2022-12-25T12:12:22.333Z,9.18
2022-12-25T12:13:22.425Z,9.19
2022-12-25T12:14:22.327Z,9.19
2022-12-25T12:15:22.344Z,9.18
2022-12-25T12:16:22.382Z,9.18
2022-12-25T12:17:22.440Z,9.17
2022-12-25T12:18:22.357Z,9.17
2022-12-25T12:19:22.330Z,9.18
2022-12-25T12:20:22.342Z,9.19
2022-12-25T12:21:22.346Z,9.18
2022-12-25T12:22:22.443Z,9.2
2022-12-25T12:23:22.362Z,9.19
2022-12-25T12:24:22.341Z,9.19
2022-12-25T12:25:22.329Z,9.2
2022-12-25T12:26:22.380Z,9.2
2022-12-25T12:27:22.507Z,9.19
2022-12-25T12:28:22.527Z,9.19
2022-12-25T12:29:22.406Z,9.21
2022-12-25T12:30:22.336Z,9.18
2022-12-25T12:31:22.545Z,9.2
2022-12-25T12:32:22.405Z,9.2
2022-12-25T12:33:22.539Z,9.21
2022-12-25T12:34:22.409Z,9.21
2022-12-25T12:35:22.414Z,9.2
2022-12-25T12:36:35.171Z,9.19
2022-12-25T12:37:25.554Z,9.19
2022-12-25T12:38:22.639Z,9.2
2022-12-25T12:39:22.360Z,9.19
2022-12-25T12:40:22.426Z,9.2
2022-12-25T12:41:22.484Z,9.2
2022-12-25T12:42:22.535Z,9.21
2022-12-25T12:43:22.332Z,9.21
2022-12-25T12:44:22.535Z,9.24
2022-12-25T12:45:22.327Z,9.26
2022-12-25T12:46:30.824Z,9.26
2022-12-25T12:47:22.592Z,9.28
2022-12-25T12:48:22.614Z,9.28
2022-12-25T12:49:23.696Z,9.27
2022-12-25T12:50:22.700Z,9.26
2022-12-25T12:51:23.005Z,9.24
2022-12-25T12:52:23.361Z,9.24
2022-12-25T12:53:22.684Z,9.25
2022-12-25T12:54:23.023Z,9.25
2022-12-25T12:55:23.229Z,9.26
2022-12-25T12:56:22.698Z,9.27
2022-12-25T12:57:22.689Z,9.27
2022-12-25T12:58:22.695Z,9.29
2022-12-25T12:59:22.588Z,9.29
2022-12-25T13:00:22.668Z,9.32
2022-12-25T13:01:22.433Z,9.32
2022-12-25T13:02:22.400Z,9.32
2022-12-25T13:03:22.393Z,9.35
2022-12-25T13:04:22.331Z,9.36
2022-12-25T13:05:22.338Z,9.39
2022-12-25T13:06:22.364Z,9.41
2022-12-25T13:07:22.340Z,9.45
2022-12-25T13:08:22.430Z,9.48
2022-12-25T13:09:22.344Z,9.49
2022-12-25T13:10:22.325Z,9.5
2022-12-25T13:11:22.359Z,9.51
2022-12-25T13:12:22.331Z,9.52
2022-12-25T13:13:22.572Z,9.53
2022-12-25T13:14:22.342Z,9.54
2022-12-25T13:15:22.720Z,9.56
2022-12-25T13:16:22.497Z,9.57
2022-12-25T13:17:22.605Z,9.54
2022-12-25T13:18:22.346Z,9.57
2022-12-25T13:19:22.604Z,9.59